sensor_id;sensor_type;location;lat;lon;timestamp;P1;durP1;ratioP1;P2;durP2;ratioP2
14768;SDS011;7476;49.404;11.152;2023-11-19T00:01:31;4.10;;;3.70;;
14768;SDS011;7476;49.404;11.152;2023-11-19T00:03:58;3.50;;;3.20;;
14768;SDS011;7476;49.404;11.152;2023-11-19T00:06:26;3.77;;;3.40;;
14768;SDS011;7476;49.404;11.152;2023-11-19T00:08:53;3.70;;;3.40;;
14768;SDS011;7476;49.404;11.152;2023-11-19T00:11:19;3.60;;;3.30;;
14768;SDS011;7476;49.404;11.152;2023-11-19T00:13:46;3.70;;;3.37;;
14768;SDS011;7476;49.404;11.152;2023-11-19T00:16:13;4.53;;;3.77;;
14768;SDS011;7476;49.404;11.152;2023-11-19T00:18:41;6.17;;;3.93;;
14768;SDS011;7476;49.404;11.152;2023-11-19T00:21:08;4.47;;;3.67;;
14768;SDS011;7476;49.404;11.152;2023-11-19T00:23:36;5.50;;;3.90;;
14768;SDS011;7476;49.404;11.152;2023-11-19T00:26:03;3.73;;;3.43;;
14768;SDS011;7476;49.404;11.152;2023-11-19T00:28:31;4.10;;;3.40;;
14768;SDS011;7476;49.404;11.152;2023-11-19T00:30:58;4.83;;;3.30;;
14768;SDS011;7476;49.404;11.152;2023-11-19T00:33:24;3.53;;;3.20;;
14768;SDS011;7476;49.404;11.152;2023-11-19T00:35:51;3.80;;;3.40;;
14768;SDS011;7476;49.404;11.152;2023-11-19T00:38:18;4.00;;;3.53;;
14768;SDS011;7476;49.404;11.152;2023-11-19T00:40:46;4.57;;;3.50;;
14768;SDS011;7476;49.404;11.152;2023-11-19T00:43:12;3.73;;;3.30;;
14768;SDS011;7476;49.404;11.152;2023-11-19T00:45:39;3.70;;;3.40;;
14768;SDS011;7476;49.404;11.152;2023-11-19T00:48:05;3.50;;;3.20;;
14768;SDS011;7476;49.404;11.152;2023-11-19T00:50:32;4.77;;;3.63;;
14768;SDS011;7476;49.404;11.152;2023-11-19T00:52:59;3.67;;;3.37;;
14768;SDS011;7476;49.404;11.152;2023-11-19T00:55:26;3.90;;;3.50;;
14768;SDS011;7476;49.404;11.152;2023-11-19T00:57:54;3.80;;;3.40;;
14768;SDS011;7476;49.404;11.152;2023-11-19T01:00:21;3.90;;;3.60;;
14768;SDS011;7476;49.404;11.152;2023-11-19T01:02:51;3.93;;;3.63;;
14768;SDS011;7476;49.404;11.152;2023-11-19T01:05:18;4.07;;;3.77;;
14768;SDS011;7476;49.404;11.152;2023-11-19T01:07:47;3.90;;;3.50;;
14768;SDS011;7476;49.404;11.152;2023-11-19T01:10:14;3.77;;;3.43;;
14768;SDS011;7476;49.404;11.152;2023-11-19T01:12:41;4.17;;;3.73;;
14768;SDS011;7476;49.404;11.152;2023-11-19T01:15:09;4.20;;;3.67;;
14768;SDS011;7476;49.404;11.152;2023-11-19T01:17:36;4.00;;;3.37;;
14768;SDS011;7476;49.404;11.152;2023-11-19T01:20:04;4.13;;;3.77;;
14768;SDS011;7476;49.404;11.152;2023-11-19T01:22:31;4.13;;;3.77;;
14768;SDS011;7476;49.404;11.152;2023-11-19T01:24:58;4.30;;;3.87;;
14768;SDS011;7476;49.404;11.152;2023-11-19T01:27:25;4.13;;;3.73;;
14768;SDS011;7476;49.404;11.152;2023-11-19T01:29:52;3.80;;;3.50;;
14768;SDS011;7476;49.404;11.152;2023-11-19T01:32:20;4.30;;;3.70;;
14768;SDS011;7476;49.404;11.152;2023-11-19T01:34:46;4.00;;;3.60;;
14768;SDS011;7476;49.404;11.152;2023-11-19T01:37:13;4.13;;;3.73;;
14768;SDS011;7476;49.404;11.152;2023-11-19T01:39:40;4.10;;;3.70;;
14768;SDS011;7476;49.404;11.152;2023-11-19T01:42:09;3.70;;;3.40;;
14768;SDS011;7476;49.404;11.152;2023-11-19T01:44:37;4.27;;;3.87;;
14768;SDS011;7476;49.404;11.152;2023-11-19T01:47:03;3.90;;;3.50;;
14768;SDS011;7476;49.404;11.152;2023-11-19T01:49:32;3.47;;;3.23;;
14768;SDS011;7476;49.404;11.152;2023-11-19T01:51:58;4.37;;;3.60;;
14768;SDS011;7476;49.404;11.152;2023-11-19T01:54:25;3.80;;;3.50;;
14768;SDS011;7476;49.404;11.152;2023-11-19T01:56:53;3.70;;;3.40;;
14768;SDS011;7476;49.404;11.152;2023-11-19T01:59:22;3.53;;;3.23;;
14768;SDS011;7476;49.404;11.152;2023-11-19T02:01:51;3.87;;;3.33;;
14768;SDS011;7476;49.404;11.152;2023-11-19T02:04:19;3.60;;;3.30;;
14768;SDS011;7476;49.404;11.152;2023-11-19T02:06:48;5.23;;;3.87;;
14768;SDS011;7476;49.404;11.152;2023-11-19T02:09:20;3.73;;;3.40;;
14768;SDS011;7476;49.404;11.152;2023-11-19T02:11:46;4.00;;;3.70;;
14768;SDS011;7476;49.404;11.152;2023-11-19T02:14:16;3.63;;;3.33;;
14768;SDS011;7476;49.404;11.152;2023-11-19T02:16:43;4.07;;;3.33;;
14768;SDS011;7476;49.404;11.152;2023-11-19T02:19:10;3.87;;;3.50;;
14768;SDS011;7476;49.404;11.152;2023-11-19T02:21:36;3.70;;;3.40;;
14768;SDS011;7476;49.404;11.152;2023-11-19T02:24:06;4.17;;;3.67;;
14768;SDS011;7476;49.404;11.152;2023-11-19T02:26:39;3.40;;;3.10;;
14768;SDS011;7476;49.404;11.152;2023-11-19T02:29:08;4.10;;;3.33;;
14768;SDS011;7476;49.404;11.152;2023-11-19T02:31:35;3.67;;;3.37;;
14768;SDS011;7476;49.404;11.152;2023-11-19T02:34:02;3.63;;;3.33;;
14768;SDS011;7476;49.404;11.152;2023-11-19T02:36:29;4.30;;;3.70;;
14768;SDS011;7476;49.404;11.152;2023-11-19T02:38:57;4.30;;;3.43;;
14768;SDS011;7476;49.404;11.152;2023-11-19T02:41:23;4.17;;;3.77;;
14768;SDS011;7476;49.404;11.152;2023-11-19T02:43:50;4.67;;;4.17;;
14768;SDS011;7476;49.404;11.152;2023-11-19T02:46:18;4.33;;;3.93;;
14768;SDS011;7476;49.404;11.152;2023-11-19T02:48:45;4.40;;;4.00;;
14768;SDS011;7476;49.404;11.152;2023-11-19T02:51:11;4.10;;;3.70;;
14768;SDS011;7476;49.404;11.152;2023-11-19T02:53:38;5.40;;;4.10;;
14768;SDS011;7476;49.404;11.152;2023-11-19T02:56:05;4.53;;;4.07;;
14768;SDS011;7476;49.404;11.152;2023-11-19T02:58:42;4.40;;;4.00;;
14768;SDS011;7476;49.404;11.152;2023-11-19T03:01:09;4.93;;;3.80;;
14768;SDS011;7476;49.404;11.152;2023-11-19T03:03:45;4.50;;;4.10;;
14768;SDS011;7476;49.404;11.152;2023-11-19T03:06:14;4.20;;;3.80;;
14768;SDS011;7476;49.404;11.152;2023-11-19T03:08:41;4.00;;;3.70;;
14768;SDS011;7476;49.404;11.152;2023-11-19T03:11:07;5.40;;;4.17;;
14768;SDS011;7476;49.404;11.152;2023-11-19T03:13:34;6.07;;;4.30;;
14768;SDS011;7476;49.404;11.152;2023-11-19T03:16:01;4.33;;;3.93;;
14768;SDS011;7476;49.404;11.152;2023-11-19T03:18:28;5.00;;;4.50;;
14768;SDS011;7476;49.404;11.152;2023-11-19T03:20:56;5.57;;;3.80;;
14768;SDS011;7476;49.404;11.152;2023-11-19T03:23:23;4.60;;;4.20;;
14768;SDS011;7476;49.404;11.152;2023-11-19T03:25:52;4.97;;;3.80;;
14768;SDS011;7476;49.404;11.152;2023-11-19T03:28:19;4.33;;;3.80;;
14768;SDS011;7476;49.404;11.152;2023-11-19T03:30:46;6.33;;;4.30;;
14768;SDS011;7476;49.404;11.152;2023-11-19T03:33:12;4.83;;;4.33;;
14768;SDS011;7476;49.404;11.152;2023-11-19T03:35:39;4.83;;;4.33;;
14768;SDS011;7476;49.404;11.152;2023-11-19T03:38:08;5.47;;;4.13;;
14768;SDS011;7476;49.404;11.152;2023-11-19T03:40:34;7.20;;;4.90;;
14768;SDS011;7476;49.404;11.152;2023-11-19T03:43:03;6.17;;;4.90;;
14768;SDS011;7476;49.404;11.152;2023-11-19T03:45:30;6.13;;;4.50;;
14768;SDS011;7476;49.404;11.152;2023-11-19T03:47:56;6.40;;;5.20;;
14768;SDS011;7476;49.404;11.152;2023-11-19T03:50:23;6.00;;;5.13;;
14768;SDS011;7476;49.404;11.152;2023-11-19T03:52:50;5.73;;;5.00;;
14768;SDS011;7476;49.404;11.152;2023-11-19T03:55:18;6.33;;;4.73;;
14768;SDS011;7476;49.404;11.152;2023-11-19T03:57:45;5.63;;;5.00;;
14768;SDS011;7476;49.404;11.152;2023-11-19T04:00:13;5.83;;;5.23;;
14768;SDS011;7476;49.404;11.152;2023-11-19T04:02:40;6.03;;;5.40;;
14768;SDS011;7476;49.404;11.152;2023-11-19T04:05:07;5.60;;;5.03;;
14768;SDS011;7476;49.404;11.152;2023-11-19T04:07:35;7.10;;;4.93;;
14768;SDS011;7476;49.404;11.152;2023-11-19T04:10:02;5.57;;;5.03;;
14768;SDS011;7476;49.404;11.152;2023-11-19T04:12:30;5.70;;;4.90;;
14768;SDS011;7476;49.404;11.152;2023-11-19T04:14:57;6.23;;;5.00;;
14768;SDS011;7476;49.404;11.152;2023-11-19T04:17:24;6.53;;;5.23;;
14768;SDS011;7476;49.404;11.152;2023-11-19T04:19:50;5.47;;;4.90;;
14768;SDS011;7476;49.404;11.152;2023-11-19T04:22:17;6.00;;;5.40;;
14768;SDS011;7476;49.404;11.152;2023-11-19T04:24:44;5.90;;;5.30;;
14768;SDS011;7476;49.404;11.152;2023-11-19T04:27:11;6.97;;;5.13;;
14768;SDS011;7476;49.404;11.152;2023-11-19T04:29:39;5.93;;;5.33;;
14768;SDS011;7476;49.404;11.152;2023-11-19T04:32:06;5.63;;;5.03;;
14768;SDS011;7476;49.404;11.152;2023-11-19T04:34:33;5.27;;;4.77;;
14768;SDS011;7476;49.404;11.152;2023-11-19T04:36:59;5.30;;;4.80;;
14768;SDS011;7476;49.404;11.152;2023-11-19T04:39:28;5.07;;;4.57;;
14768;SDS011;7476;49.404;11.152;2023-11-19T04:41:55;6.10;;;5.50;;
14768;SDS011;7476;49.404;11.152;2023-11-19T04:44:21;5.70;;;5.10;;
14768;SDS011;7476;49.404;11.152;2023-11-19T04:46:49;5.87;;;5.27;;
14768;SDS011;7476;49.404;11.152;2023-11-19T04:49:16;6.93;;;5.87;;
14768;SDS011;7476;49.404;11.152;2023-11-19T04:51:44;7.03;;;6.27;;
14768;SDS011;7476;49.404;11.152;2023-11-19T04:54:12;7.00;;;5.93;;
14768;SDS011;7476;49.404;11.152;2023-11-19T04:56:39;6.50;;;5.70;;
14768;SDS011;7476;49.404;11.152;2023-11-19T04:59:06;6.50;;;5.70;;
14768;SDS011;7476;49.404;11.152;2023-11-19T05:01:33;6.70;;;5.97;;
14768;SDS011;7476;49.404;11.152;2023-11-19T05:04:02;6.80;;;6.10;;
14768;SDS011;7476;49.404;11.152;2023-11-19T05:06:29;7.77;;;6.77;;
14768;SDS011;7476;49.404;11.152;2023-11-19T05:08:56;7.10;;;6.30;;
14768;SDS011;7476;49.404;11.152;2023-11-19T05:11:26;7.40;;;6.43;;
14768;SDS011;7476;49.404;11.152;2023-11-19T05:13:53;7.23;;;6.33;;
14768;SDS011;7476;49.404;11.152;2023-11-19T05:16:19;6.83;;;6.13;;
14768;SDS011;7476;49.404;11.152;2023-11-19T05:18:46;7.60;;;6.73;;
14768;SDS011;7476;49.404;11.152;2023-11-19T05:21:14;6.93;;;6.20;;
14768;SDS011;7476;49.404;11.152;2023-11-19T05:23:42;7.13;;;6.40;;
14768;SDS011;7476;49.404;11.152;2023-11-19T05:26:09;7.33;;;6.50;;
14768;SDS011;7476;49.404;11.152;2023-11-19T05:28:42;8.50;;;7.37;;
14768;SDS011;7476;49.404;11.152;2023-11-19T05:31:09;7.47;;;6.67;;
14768;SDS011;7476;49.404;11.152;2023-11-19T05:33:36;8.27;;;6.50;;
14768;SDS011;7476;49.404;11.152;2023-11-19T05:36:03;7.50;;;6.70;;
14768;SDS011;7476;49.404;11.152;2023-11-19T05:38:31;7.40;;;6.67;;
14768;SDS011;7476;49.404;11.152;2023-11-19T05:40:58;7.30;;;6.00;;
14768;SDS011;7476;49.404;11.152;2023-11-19T05:43:25;6.63;;;5.93;;
14768;SDS011;7476;49.404;11.152;2023-11-19T05:45:51;8.53;;;6.67;;
14768;SDS011;7476;49.404;11.152;2023-11-19T05:48:18;9.50;;;6.47;;
14768;SDS011;7476;49.404;11.152;2023-11-19T05:50:44;8.00;;;6.73;;
14768;SDS011;7476;49.404;11.152;2023-11-19T05:53:12;8.53;;;7.13;;
14768;SDS011;7476;49.404;11.152;2023-11-19T05:55:41;8.40;;;7.00;;
14768;SDS011;7476;49.404;11.152;2023-11-19T05:58:13;7.47;;;6.57;;
14768;SDS011;7476;49.404;11.152;2023-11-19T06:00:41;7.67;;;6.57;;
14768;SDS011;7476;49.404;11.152;2023-11-19T06:03:07;8.53;;;6.67;;
14768;SDS011;7476;49.404;11.152;2023-11-19T06:05:34;7.50;;;6.73;;
14768;SDS011;7476;49.404;11.152;2023-11-19T06:08:01;8.40;;;6.40;;
14768;SDS011;7476;49.404;11.152;2023-11-19T06:10:27;7.30;;;6.40;;
14768;SDS011;7476;49.404;11.152;2023-11-19T06:12:57;7.33;;;6.53;;
14768;SDS011;7476;49.404;11.152;2023-11-19T06:15:24;8.60;;;6.23;;
14768;SDS011;7476;49.404;11.152;2023-11-19T06:17:51;7.47;;;6.37;;
14768;SDS011;7476;49.404;11.152;2023-11-19T06:20:18;7.63;;;6.17;;
14768;SDS011;7476;49.404;11.152;2023-11-19T06:22:45;7.03;;;6.33;;
14768;SDS011;7476;49.404;11.152;2023-11-19T06:25:11;6.80;;;6.10;;
14768;SDS011;7476;49.404;11.152;2023-11-19T06:27:39;6.33;;;5.73;;
14768;SDS011;7476;49.404;11.152;2023-11-19T06:30:08;6.90;;;5.77;;
14768;SDS011;7476;49.404;11.152;2023-11-19T06:32:35;6.50;;;5.80;;
14768;SDS011;7476;49.404;11.152;2023-11-19T06:35:02;6.03;;;5.40;;
14768;SDS011;7476;49.404;11.152;2023-11-19T06:37:30;6.07;;;5.30;;
14768;SDS011;7476;49.404;11.152;2023-11-19T06:39:57;6.53;;;5.50;;
14768;SDS011;7476;49.404;11.152;2023-11-19T06:42:24;6.13;;;4.80;;
14768;SDS011;7476;49.404;11.152;2023-11-19T06:44:51;6.00;;;4.27;;
14768;SDS011;7476;49.404;11.152;2023-11-19T06:47:19;6.07;;;4.80;;
14768;SDS011;7476;49.404;11.152;2023-11-19T06:49:45;5.00;;;4.50;;
14768;SDS011;7476;49.404;11.152;2023-11-19T06:52:12;4.70;;;4.20;;
14768;SDS011;7476;49.404;11.152;2023-11-19T06:54:39;4.53;;;4.03;;
14768;SDS011;7476;49.404;11.152;2023-11-19T06:57:05;4.60;;;4.10;;
14768;SDS011;7476;49.404;11.152;2023-11-19T06:59:34;4.37;;;3.53;;
14768;SDS011;7476;49.404;11.152;2023-11-19T07:02:01;4.60;;;3.67;;
14768;SDS011;7476;49.404;11.152;2023-11-19T07:04:29;4.30;;;3.47;;
14768;SDS011;7476;49.404;11.152;2023-11-19T07:06:56;3.20;;;2.90;;
14768;SDS011;7476;49.404;11.152;2023-11-19T07:09:22;3.80;;;3.43;;
14768;SDS011;7476;49.404;11.152;2023-11-19T07:11:49;3.43;;;3.13;;
14768;SDS011;7476;49.404;11.152;2023-11-19T07:14:17;3.90;;;3.60;;
14768;SDS011;7476;49.404;11.152;2023-11-19T07:16:44;3.30;;;3.00;;
14768;SDS011;7476;49.404;11.152;2023-11-19T07:19:11;3.13;;;2.90;;
14768;SDS011;7476;49.404;11.152;2023-11-19T07:21:42;3.97;;;3.27;;
14768;SDS011;7476;49.404;11.152;2023-11-19T07:24:09;2.93;;;2.63;;
14768;SDS011;7476;49.404;11.152;2023-11-19T07:26:41;3.10;;;2.80;;
14768;SDS011;7476;49.404;11.152;2023-11-19T07:29:09;2.90;;;2.60;;
14768;SDS011;7476;49.404;11.152;2023-11-19T07:31:36;3.93;;;2.90;;
14768;SDS011;7476;49.404;11.152;2023-11-19T07:34:02;4.00;;;2.87;;
14768;SDS011;7476;49.404;11.152;2023-11-19T07:36:30;3.53;;;2.50;;
14768;SDS011;7476;49.404;11.152;2023-11-19T07:38:58;2.70;;;2.50;;
14768;SDS011;7476;49.404;11.152;2023-11-19T07:41:25;2.50;;;2.30;;
14768;SDS011;7476;49.404;11.152;2023-11-19T07:43:51;2.43;;;2.20;;
14768;SDS011;7476;49.404;11.152;2023-11-19T07:46:19;3.13;;;2.60;;
14768;SDS011;7476;49.404;11.152;2023-11-19T07:48:46;3.10;;;2.20;;
14768;SDS011;7476;49.404;11.152;2023-11-19T07:51:13;2.30;;;2.10;;
14768;SDS011;7476;49.404;11.152;2023-11-19T07:53:40;2.20;;;2.00;;
14768;SDS011;7476;49.404;11.152;2023-11-19T07:56:08;2.30;;;2.10;;
14768;SDS011;7476;49.404;11.152;2023-11-19T07:58:35;2.33;;;1.87;;
14768;SDS011;7476;49.404;11.152;2023-11-19T08:01:02;2.30;;;1.87;;
14768;SDS011;7476;49.404;11.152;2023-11-19T08:03:29;7.80;;;1.63;;
14768;SDS011;7476;49.404;11.152;2023-11-19T08:05:56;2.13;;;1.73;;
14768;SDS011;7476;49.404;11.152;2023-11-19T08:08:23;1.90;;;1.80;;
14768;SDS011;7476;49.404;11.152;2023-11-19T08:10:49;4.77;;;1.60;;
14768;SDS011;7476;49.404;11.152;2023-11-19T08:13:19;1.53;;;1.43;;
14768;SDS011;7476;49.404;11.152;2023-11-19T08:15:45;1.50;;;1.40;;
14768;SDS011;7476;49.404;11.152;2023-11-19T08:18:12;1.67;;;1.43;;
14768;SDS011;7476;49.404;11.152;2023-11-19T08:20:39;1.43;;;1.33;;
14768;SDS011;7476;49.404;11.152;2023-11-19T08:23:06;1.57;;;1.23;;
14768;SDS011;7476;49.404;11.152;2023-11-19T08:25:33;1.40;;;1.30;;
14768;SDS011;7476;49.404;11.152;2023-11-19T08:28:00;1.50;;;1.40;;
14768;SDS011;7476;49.404;11.152;2023-11-19T08:30:29;1.63;;;1.27;;
14768;SDS011;7476;49.404;11.152;2023-11-19T08:32:56;1.30;;;1.20;;
14768;SDS011;7476;49.404;11.152;2023-11-19T08:35:23;1.80;;;1.20;;
14768;SDS011;7476;49.404;11.152;2023-11-19T08:37:50;1.60;;;1.50;;
14768;SDS011;7476;49.404;11.152;2023-11-19T08:40:17;2.70;;;2.30;;
14768;SDS011;7476;49.404;11.152;2023-11-19T08:42:45;2.80;;;2.10;;
14768;SDS011;7476;49.404;11.152;2023-11-19T08:45:11;2.10;;;1.70;;
14768;SDS011;7476;49.404;11.152;2023-11-19T08:47:40;2.33;;;1.50;;
14768;SDS011;7476;49.404;11.152;2023-11-19T08:50:06;1.30;;;1.20;;
14768;SDS011;7476;49.404;11.152;2023-11-19T08:52:34;4.47;;;1.90;;
14768;SDS011;7476;49.404;11.152;2023-11-19T08:55:01;1.53;;;1.20;;
14768;SDS011;7476;49.404;11.152;2023-11-19T08:57:28;1.10;;;1.00;;
14768;SDS011;7476;49.404;11.152;2023-11-19T08:59:54;2.17;;;1.40;;
14768;SDS011;7476;49.404;11.152;2023-11-19T09:02:21;3.83;;;2.73;;
14768;SDS011;7476;49.404;11.152;2023-11-19T09:04:49;2.83;;;1.70;;
14768;SDS011;7476;49.404;11.152;2023-11-19T09:07:16;2.07;;;1.73;;
14768;SDS011;7476;49.404;11.152;2023-11-19T09:09:43;1.60;;;1.40;;
14768;SDS011;7476;49.404;11.152;2023-11-19T09:12:09;1.40;;;1.30;;
14768;SDS011;7476;49.404;11.152;2023-11-19T09:14:36;3.10;;;1.80;;
14768;SDS011;7476;49.404;11.152;2023-11-19T09:17:03;2.30;;;1.27;;
14768;SDS011;7476;49.404;11.152;2023-11-19T09:19:32;1.53;;;1.20;;
14768;SDS011;7476;49.404;11.152;2023-11-19T09:22:02;1.80;;;1.20;;
14768;SDS011;7476;49.404;11.152;2023-11-19T09:24:29;1.77;;;1.20;;
14768;SDS011;7476;49.404;11.152;2023-11-19T09:26:56;1.70;;;1.30;;
14768;SDS011;7476;49.404;11.152;2023-11-19T09:29:22;3.77;;;1.30;;
14768;SDS011;7476;49.404;11.152;2023-11-19T09:31:49;2.43;;;1.17;;
14768;SDS011;7476;49.404;11.152;2023-11-19T09:34:16;12.03;;;1.67;;
14768;SDS011;7476;49.404;11.152;2023-11-19T09:36:43;2.00;;;1.10;;
14768;SDS011;7476;49.404;11.152;2023-11-19T09:39:11;1.40;;;1.30;;
14768;SDS011;7476;49.404;11.152;2023-11-19T09:41:39;1.93;;;1.20;;
14768;SDS011;7476;49.404;11.152;2023-11-19T09:44:07;2.90;;;1.60;;
14768;SDS011;7476;49.404;11.152;2023-11-19T09:46:34;2.57;;;1.17;;
14768;SDS011;7476;49.404;11.152;2023-11-19T09:49:02;2.27;;;1.10;;
14768;SDS011;7476;49.404;11.152;2023-11-19T09:51:30;1.77;;;1.10;;
14768;SDS011;7476;49.404;11.152;2023-11-19T09:53:56;1.57;;;1.20;;
14768;SDS011;7476;49.404;11.152;2023-11-19T09:56:24;3.50;;;1.07;;
14768;SDS011;7476;49.404;11.152;2023-11-19T09:58:52;1.63;;;1.20;;
14768;SDS011;7476;49.404;11.152;2023-11-19T10:01:19;1.83;;;1.10;;
14768;SDS011;7476;49.404;11.152;2023-11-19T10:03:46;1.20;;;1.10;;
14768;SDS011;7476;49.404;11.152;2023-11-19T10:06:13;2.53;;;1.10;;
14768;SDS011;7476;49.404;11.152;2023-11-19T10:08:41;2.30;;;1.40;;
14768;SDS011;7476;49.404;11.152;2023-11-19T10:11:08;2.77;;;1.47;;
14768;SDS011;7476;49.404;11.152;2023-11-19T10:13:39;2.33;;;1.20;;
14768;SDS011;7476;49.404;11.152;2023-11-19T10:16:07;1.57;;;1.10;;
14768;SDS011;7476;49.404;11.152;2023-11-19T10:18:36;1.47;;;1.20;;
14768;SDS011;7476;49.404;11.152;2023-11-19T10:21:03;2.40;;;1.37;;
14768;SDS011;7476;49.404;11.152;2023-11-19T10:23:41;1.83;;;1.03;;
14768;SDS011;7476;49.404;11.152;2023-11-19T10:26:15;1.67;;;1.20;;
14768;SDS011;7476;49.404;11.152;2023-11-19T10:28:43;2.73;;;1.40;;
14768;SDS011;7476;49.404;11.152;2023-11-19T10:31:11;2.70;;;1.50;;
14768;SDS011;7476;49.404;11.152;2023-11-19T10:33:38;2.90;;;1.60;;
14768;SDS011;7476;49.404;11.152;2023-11-19T10:36:05;3.27;;;1.20;;
14768;SDS011;7476;49.404;11.152;2023-11-19T10:38:33;2.70;;;1.80;;
14768;SDS011;7476;49.404;11.152;2023-11-19T10:41:00;1.83;;;1.20;;
14768;SDS011;7476;49.404;11.152;2023-11-19T10:43:27;2.33;;;1.20;;
14768;SDS011;7476;49.404;11.152;2023-11-19T10:45:55;1.57;;;1.30;;
14768;SDS011;7476;49.404;11.152;2023-11-19T10:48:35;1.47;;;0.90;;
14768;SDS011;7476;49.404;11.152;2023-11-19T10:51:03;2.20;;;1.57;;
14768;SDS011;7476;49.404;11.152;2023-11-19T10:53:32;3.03;;;1.20;;
14768;SDS011;7476;49.404;11.152;2023-11-19T10:56:02;1.87;;;1.03;;
14768;SDS011;7476;49.404;11.152;2023-11-19T10:58:33;2.73;;;1.10;;
14768;SDS011;7476;49.404;11.152;2023-11-19T11:01:06;1.47;;;1.20;;
14768;SDS011;7476;49.404;11.152;2023-11-19T11:03:38;1.73;;;1.13;;
14768;SDS011;7476;49.404;11.152;2023-11-19T11:06:06;1.20;;;0.90;;
14768;SDS011;7476;49.404;11.152;2023-11-19T11:08:34;1.13;;;1.00;;
14768;SDS011;7476;49.404;11.152;2023-11-19T11:11:04;1.87;;;1.10;;
14768;SDS011;7476;49.404;11.152;2023-11-19T11:13:32;2.93;;;1.30;;
14768;SDS011;7476;49.404;11.152;2023-11-19T11:16:00;2.30;;;1.10;;
14768;SDS011;7476;49.404;11.152;2023-11-19T11:18:28;1.67;;;1.30;;
14768;SDS011;7476;49.404;11.152;2023-11-19T11:20:55;1.40;;;1.30;;
14768;SDS011;7476;49.404;11.152;2023-11-19T11:23:34;1.90;;;1.20;;
14768;SDS011;7476;49.404;11.152;2023-11-19T11:26:38;3.00;;;1.20;;
14768;SDS011;7476;49.404;11.152;2023-11-19T11:29:20;1.60;;;1.13;;
14768;SDS011;7476;49.404;11.152;2023-11-19T11:31:55;1.97;;;1.10;;
14768;SDS011;7476;49.404;11.152;2023-11-19T11:34:44;1.90;;;1.20;;
14768;SDS011;7476;49.404;11.152;2023-11-19T11:37:30;2.23;;;1.20;;
14768;SDS011;7476;49.404;11.152;2023-11-19T11:40:00;3.90;;;1.40;;
14768;SDS011;7476;49.404;11.152;2023-11-19T11:42:31;1.47;;;1.10;;
14768;SDS011;7476;49.404;11.152;2023-11-19T11:45:01;3.43;;;1.33;;
14768;SDS011;7476;49.404;11.152;2023-11-19T11:50:54;1.90;;;1.30;;
14768;SDS011;7476;49.404;11.152;2023-11-19T11:53:22;2.57;;;1.13;;
14768;SDS011;7476;49.404;11.152;2023-11-19T11:55:53;3.37;;;1.20;;
14768;SDS011;7476;49.404;11.152;2023-11-19T11:58:29;2.93;;;1.43;;
14768;SDS011;7476;49.404;11.152;2023-11-19T12:00:57;3.30;;;1.40;;
14768;SDS011;7476;49.404;11.152;2023-11-19T12:03:27;2.03;;;1.30;;
14768;SDS011;7476;49.404;11.152;2023-11-19T12:05:56;3.13;;;1.30;;
14768;SDS011;7476;49.404;11.152;2023-11-19T12:08:24;2.73;;;1.40;;
14768;SDS011;7476;49.404;11.152;2023-11-19T12:10:53;2.17;;;1.40;;
14768;SDS011;7476;49.404;11.152;2023-11-19T12:13:23;3.43;;;1.70;;
14768;SDS011;7476;49.404;11.152;2023-11-19T12:16:08;3.37;;;1.77;;
14768;SDS011;7476;49.404;11.152;2023-11-19T12:18:35;2.90;;;1.30;;
14768;SDS011;7476;49.404;11.152;2023-11-19T12:21:07;2.30;;;1.53;;
14768;SDS011;7476;49.404;11.152;2023-11-19T12:23:35;1.60;;;1.30;;
14768;SDS011;7476;49.404;11.152;2023-11-19T12:29:02;3.80;;;1.50;;
14768;SDS011;7476;49.404;11.152;2023-11-19T12:31:32;2.03;;;1.40;;
14768;SDS011;7476;49.404;11.152;2023-11-19T12:34:08;2.87;;;1.43;;
14768;SDS011;7476;49.404;11.152;2023-11-19T12:36:38;5.87;;;1.30;;
14768;SDS011;7476;49.404;11.152;2023-11-19T12:39:06;3.00;;;1.50;;
14768;SDS011;7476;49.404;11.152;2023-11-19T12:41:48;1.47;;;1.13;;
14768;SDS011;7476;49.404;11.152;2023-11-19T12:44:18;3.67;;;1.30;;
14768;SDS011;7476;49.404;11.152;2023-11-19T12:46:43;3.33;;;1.30;;
14768;SDS011;7476;49.404;11.152;2023-11-19T12:49:11;3.00;;;1.20;;
14768;SDS011;7476;49.404;11.152;2023-11-19T12:51:39;1.87;;;1.10;;
14768;SDS011;7476;49.404;11.152;2023-11-19T12:54:06;2.00;;;1.30;;
14768;SDS011;7476;49.404;11.152;2023-11-19T12:56:32;2.77;;;1.20;;
14768;SDS011;7476;49.404;11.152;2023-11-19T12:59:09;1.50;;;1.00;;
14768;SDS011;7476;49.404;11.152;2023-11-19T13:01:37;1.73;;;1.23;;
14768;SDS011;7476;49.404;11.152;2023-11-19T13:04:15;2.40;;;1.30;;
14768;SDS011;7476;49.404;11.152;2023-11-19T13:06:45;3.93;;;1.20;;
14768;SDS011;7476;49.404;11.152;2023-11-19T13:09:21;2.50;;;1.40;;
14768;SDS011;7476;49.404;11.152;2023-11-19T13:11:49;2.77;;;1.20;;
14768;SDS011;7476;49.404;11.152;2023-11-19T13:14:15;1.30;;;1.00;;
14768;SDS011;7476;49.404;11.152;2023-11-19T13:16:42;1.67;;;1.10;;
14768;SDS011;7476;49.404;11.152;2023-11-19T13:19:10;2.23;;;1.10;;
14768;SDS011;7476;49.404;11.152;2023-11-19T13:21:37;2.17;;;1.10;;
14768;SDS011;7476;49.404;11.152;2023-11-19T13:24:06;1.60;;;1.10;;
14768;SDS011;7476;49.404;11.152;2023-11-19T13:26:32;2.80;;;1.10;;
14768;SDS011;7476;49.404;11.152;2023-11-19T13:28:59;2.00;;;1.20;;
14768;SDS011;7476;49.404;11.152;2023-11-19T13:31:26;2.30;;;1.40;;
14768;SDS011;7476;49.404;11.152;2023-11-19T13:33:53;2.57;;;1.10;;
14768;SDS011;7476;49.404;11.152;2023-11-19T13:36:20;1.77;;;1.30;;
14768;SDS011;7476;49.404;11.152;2023-11-19T13:38:47;1.23;;;1.13;;
14768;SDS011;7476;49.404;11.152;2023-11-19T13:41:15;3.47;;;1.50;;
14768;SDS011;7476;49.404;11.152;2023-11-19T13:43:42;1.73;;;1.20;;
14768;SDS011;7476;49.404;11.152;2023-11-19T13:46:09;2.30;;;1.20;;
14768;SDS011;7476;49.404;11.152;2023-11-19T13:48:35;3.60;;;1.20;;
14768;SDS011;7476;49.404;11.152;2023-11-19T13:51:02;1.57;;;1.20;;
14768;SDS011;7476;49.404;11.152;2023-11-19T13:53:29;1.90;;;1.20;;
14768;SDS011;7476;49.404;11.152;2023-11-19T13:55:55;1.60;;;1.17;;
14768;SDS011;7476;49.404;11.152;2023-11-19T13:58:24;2.40;;;1.10;;
14768;SDS011;7476;49.404;11.152;2023-11-19T14:00:50;4.23;;;1.30;;
14768;SDS011;7476;49.404;11.152;2023-11-19T14:03:17;2.57;;;1.20;;
14768;SDS011;7476;49.404;11.152;2023-11-19T14:05:44;1.63;;;1.17;;
14768;SDS011;7476;49.404;11.152;2023-11-19T14:08:12;2.40;;;1.27;;
14768;SDS011;7476;49.404;11.152;2023-11-19T14:10:39;2.03;;;1.17;;
14768;SDS011;7476;49.404;11.152;2023-11-19T14:13:06;1.40;;;1.00;;
14768;SDS011;7476;49.404;11.152;2023-11-19T14:15:34;1.60;;;1.10;;
14768;SDS011;7476;49.404;11.152;2023-11-19T14:18:01;1.47;;;1.10;;
14768;SDS011;7476;49.404;11.152;2023-11-19T14:20:28;3.43;;;1.40;;
14768;SDS011;7476;49.404;11.152;2023-11-19T14:22:55;3.27;;;1.20;;
14768;SDS011;7476;49.404;11.152;2023-11-19T14:25:22;1.50;;;1.07;;
14768;SDS011;7476;49.404;11.152;2023-11-19T14:27:49;1.20;;;1.10;;
14768;SDS011;7476;49.404;11.152;2023-11-19T14:30:15;3.53;;;1.20;;
14768;SDS011;7476;49.404;11.152;2023-11-19T14:32:44;2.10;;;1.10;;
14768;SDS011;7476;49.404;11.152;2023-11-19T14:35:13;1.73;;;1.13;;
14768;SDS011;7476;49.404;11.152;2023-11-19T14:37:40;3.30;;;1.40;;
14768;SDS011;7476;49.404;11.152;2023-11-19T14:40:07;2.47;;;1.43;;
14768;SDS011;7476;49.404;11.152;2023-11-19T14:42:35;1.67;;;1.30;;
14768;SDS011;7476;49.404;11.152;2023-11-19T14:45:02;2.53;;;1.07;;
14768;SDS011;7476;49.404;11.152;2023-11-19T14:47:29;2.87;;;1.33;;
14768;SDS011;7476;49.404;11.152;2023-11-19T14:49:57;2.70;;;1.60;;
14768;SDS011;7476;49.404;11.152;2023-11-19T14:52:24;3.33;;;1.40;;
14768;SDS011;7476;49.404;11.152;2023-11-19T14:54:51;4.90;;;1.30;;
14768;SDS011;7476;49.404;11.152;2023-11-19T14:57:19;1.37;;;1.00;;
14768;SDS011;7476;49.404;11.152;2023-11-19T14:59:45;2.23;;;1.20;;